Terminal Aerodrome Forecast
Issued by NWS

Current Version | Previous Version | Graphics & Text | Print | Product List | Glossary On
Versions: 1 2 3 4 5 6 7 8 9 10 11 12 13 14 15 16 17 18 19 20 21 22
000
FTUS41 KRNK 211030 AAB
TAFLWB
TAF AMD
KLWB 211030Z 2111/2206 00000KT 1/4SM FG OVC001
      TEMPO 2111/2113 2SM BR SCT008
     FM211300 00000KT P6SM SCT040
     FM212100 VRB03KT P6SM BKN060=

USA.gov is the U.S. government's official web portal to all federal, state and local government web resources and services.